sensor_id;sensor_type;location;lat;lon;timestamp;pressure;altitude;pressure_sealevel;temperature;humidity
62632;BME280;48703;51.248;-0.546;2023-02-03T00:02:38;102276;;;8.53;86.61
62632;BME280;48703;51.248;-0.546;2023-02-03T00:05:40;102273;;;8.52;86.60
62632;BME280;48703;51.248;-0.546;2023-02-03T00:08:42;102275;;;8.50;86.50
62632;BME280;48703;51.248;-0.546;2023-02-03T00:11:44;102276;;;8.50;86.62
62632;BME280;48703;51.248;-0.546;2023-02-03T00:14:46;102283;;;8.51;86.66
62632;BME280;48703;51.248;-0.546;2023-02-03T00:17:48;102291;;;8.51;86.79
62632;BME280;48703;51.248;-0.546;2023-02-03T00:20:50;102297;;;8.52;86.72
62632;BME280;48703;51.248;-0.546;2023-02-03T00:23:52;102300;;;8.54;86.68
62632;BME280;48703;51.248;-0.546;2023-02-03T00:26:54;102297;;;8.55;86.80
62632;BME280;48703;51.248;-0.546;2023-02-03T00:29:56;102296;;;8.56;86.73
62632;BME280;48703;51.248;-0.546;2023-02-03T00:32:58;102292;;;8.57;86.96
62632;BME280;48703;51.248;-0.546;2023-02-03T00:36:03;102285;;;8.56;86.79
62632;BME280;48703;51.248;-0.546;2023-02-03T00:39:01;102279;;;8.55;87.00
62632;BME280;48703;51.248;-0.546;2023-02-03T00:42:03;102271;;;8.55;87.35
62632;BME280;48703;51.248;-0.546;2023-02-03T00:45:06;102266;;;8.55;87.32
62632;BME280;48703;51.248;-0.546;2023-02-03T00:48:07;102267;;;8.54;87.51
62632;BME280;48703;51.248;-0.546;2023-02-03T00:51:09;102272;;;8.53;87.76
62632;BME280;48703;51.248;-0.546;2023-02-03T00:54:11;102274;;;8.54;87.59
62632;BME280;48703;51.248;-0.546;2023-02-03T00:57:13;102282;;;8.55;87.89
62632;BME280;48703;51.248;-0.546;2023-02-03T01:00:15;102288;;;8.56;87.74
62632;BME280;48703;51.248;-0.546;2023-02-03T01:03:17;102293;;;8.57;87.77
62632;BME280;48703;51.248;-0.546;2023-02-03T01:06:19;102289;;;8.59;87.84
62632;BME280;48703;51.248;-0.546;2023-02-03T01:09:20;102277;;;8.60;87.91
62632;BME280;48703;51.248;-0.546;2023-02-03T01:12:22;102272;;;8.61;87.75
62632;BME280;48703;51.248;-0.546;2023-02-03T01:15:24;102267;;;8.61;87.49
62632;BME280;48703;51.248;-0.546;2023-02-03T01:18:26;102260;;;8.60;87.79
62632;BME280;48703;51.248;-0.546;2023-02-03T01:21:28;102257;;;8.60;87.68
62632;BME280;48703;51.248;-0.546;2023-02-03T01:24:30;102255;;;8.58;87.89
62632;BME280;48703;51.248;-0.546;2023-02-03T01:27:32;102253;;;8.59;87.78
62632;BME280;48703;51.248;-0.546;2023-02-03T01:30:34;102251;;;8.59;88.05
62632;BME280;48703;51.248;-0.546;2023-02-03T01:33:36;102263;;;8.60;88.34
62632;BME280;48703;51.248;-0.546;2023-02-03T01:36:38;102269;;;8.61;88.26
62632;BME280;48703;51.248;-0.546;2023-02-03T01:39:39;102267;;;8.62;88.21
62632;BME280;48703;51.248;-0.546;2023-02-03T01:42:41;102267;;;8.62;88.24
62632;BME280;48703;51.248;-0.546;2023-02-03T01:45:43;102265;;;8.59;87.87
62632;BME280;48703;51.248;-0.546;2023-02-03T01:48:45;102262;;;8.59;88.16
62632;BME280;48703;51.248;-0.546;2023-02-03T01:51:47;102253;;;8.58;88.31
62632;BME280;48703;51.248;-0.546;2023-02-03T01:54:49;102249;;;8.59;88.11
62632;BME280;48703;51.248;-0.546;2023-02-03T01:57:52;102240;;;8.60;88.21
62632;BME280;48703;51.248;-0.546;2023-02-03T02:00:53;102235;;;8.61;88.35
62632;BME280;48703;51.248;-0.546;2023-02-03T02:03:55;102234;;;8.61;88.37
62632;BME280;48703;51.248;-0.546;2023-02-03T02:06:57;102234;;;8.62;88.18
62632;BME280;48703;51.248;-0.546;2023-02-03T02:09:59;102234;;;8.62;88.36
62632;BME280;48703;51.248;-0.546;2023-02-03T02:13:01;102241;;;8.62;88.21
62632;BME280;48703;51.248;-0.546;2023-02-03T02:16:04;102255;;;8.62;88.21
62632;BME280;48703;51.248;-0.546;2023-02-03T02:19:09;102261;;;8.63;88.01
62632;BME280;48703;51.248;-0.546;2023-02-03T02:22:08;102264;;;8.63;87.95
62632;BME280;48703;51.248;-0.546;2023-02-03T02:25:13;102274;;;8.64;87.91
62632;BME280;48703;51.248;-0.546;2023-02-03T02:28:16;102279;;;8.65;87.95
62632;BME280;48703;51.248;-0.546;2023-02-03T02:31:19;102280;;;8.65;87.82
62632;BME280;48703;51.248;-0.546;2023-02-03T02:34:16;102276;;;8.66;88.00
62632;BME280;48703;51.248;-0.546;2023-02-03T02:37:18;102278;;;8.66;87.87
62632;BME280;48703;51.248;-0.546;2023-02-03T02:40:20;102281;;;8.67;87.99
62632;BME280;48703;51.248;-0.546;2023-02-03T02:43:20;102277;;;8.67;87.84
62632;BME280;48703;51.248;-0.546;2023-02-03T02:46:23;102283;;;8.68;88.15
62632;BME280;48703;51.248;-0.546;2023-02-03T02:49:24;102281;;;8.69;87.97
62632;BME280;48703;51.248;-0.546;2023-02-03T02:52:26;102279;;;8.68;87.84
62632;BME280;48703;51.248;-0.546;2023-02-03T02:55:29;102279;;;8.69;87.96
62632;BME280;48703;51.248;-0.546;2023-02-03T02:58:29;102279;;;8.69;87.79
62632;BME280;48703;51.248;-0.546;2023-02-03T03:01:31;102280;;;8.69;87.73
62632;BME280;48703;51.248;-0.546;2023-02-03T03:04:33;102281;;;8.69;87.67
62632;BME280;48703;51.248;-0.546;2023-02-03T03:07:35;102287;;;8.69;87.78
62632;BME280;48703;51.248;-0.546;2023-02-03T03:10:37;102287;;;8.69;87.79
62632;BME280;48703;51.248;-0.546;2023-02-03T03:13:40;102288;;;8.69;87.62
62632;BME280;48703;51.248;-0.546;2023-02-03T03:16:42;102288;;;8.70;87.63
62632;BME280;48703;51.248;-0.546;2023-02-03T03:19:43;102283;;;8.70;87.88
62632;BME280;48703;51.248;-0.546;2023-02-03T03:22:46;102280;;;8.70;88.00
62632;BME280;48703;51.248;-0.546;2023-02-03T03:25:48;102280;;;8.70;87.91
62632;BME280;48703;51.248;-0.546;2023-02-03T03:28:49;102288;;;8.70;87.99
62632;BME280;48703;51.248;-0.546;2023-02-03T03:31:50;102294;;;8.71;87.98
62632;BME280;48703;51.248;-0.546;2023-02-03T03:34:52;102295;;;8.71;88.24
62632;BME280;48703;51.248;-0.546;2023-02-03T03:37:55;102296;;;8.71;88.16
62632;BME280;48703;51.248;-0.546;2023-02-03T03:40:58;102290;;;8.72;88.29
62632;BME280;48703;51.248;-0.546;2023-02-03T03:43:59;102286;;;8.72;88.32
62632;BME280;48703;51.248;-0.546;2023-02-03T03:47:02;102293;;;8.72;88.11
62632;BME280;48703;51.248;-0.546;2023-02-03T03:50:02;102290;;;8.72;88.18
62632;BME280;48703;51.248;-0.546;2023-02-03T03:53:03;102293;;;8.72;88.19
62632;BME280;48703;51.248;-0.546;2023-02-03T03:56:06;102285;;;8.72;88.07
62632;BME280;48703;51.248;-0.546;2023-02-03T03:59:07;102284;;;8.73;88.00
62632;BME280;48703;51.248;-0.546;2023-02-03T04:02:09;102284;;;8.73;87.89
62632;BME280;48703;51.248;-0.546;2023-02-03T04:05:11;102284;;;8.73;87.97
62632;BME280;48703;51.248;-0.546;2023-02-03T04:08:13;102283;;;8.73;87.98
62632;BME280;48703;51.248;-0.546;2023-02-03T04:11:15;102291;;;8.74;87.88
62632;BME280;48703;51.248;-0.546;2023-02-03T04:14:17;102297;;;8.74;87.99
62632;BME280;48703;51.248;-0.546;2023-02-03T04:17:19;102300;;;8.75;87.98
62632;BME280;48703;51.248;-0.546;2023-02-03T04:20:21;102301;;;8.75;88.20
62632;BME280;48703;51.248;-0.546;2023-02-03T04:23:22;102299;;;8.75;88.17
62632;BME280;48703;51.248;-0.546;2023-02-03T04:26:24;102303;;;8.75;87.94
62632;BME280;48703;51.248;-0.546;2023-02-03T04:29:26;102306;;;8.75;87.99
62632;BME280;48703;51.248;-0.546;2023-02-03T04:32:28;102303;;;8.76;87.78
62632;BME280;48703;51.248;-0.546;2023-02-03T04:35:30;102304;;;8.76;87.73
62632;BME280;48703;51.248;-0.546;2023-02-03T04:38:32;102307;;;8.76;87.98
62632;BME280;48703;51.248;-0.546;2023-02-03T04:41:34;102308;;;8.76;88.17
62632;BME280;48703;51.248;-0.546;2023-02-03T04:44:36;102312;;;8.76;88.21
62632;BME280;48703;51.248;-0.546;2023-02-03T04:47:38;102319;;;8.76;88.10
62632;BME280;48703;51.248;-0.546;2023-02-03T04:50:40;102318;;;8.77;87.94
62632;BME280;48703;51.248;-0.546;2023-02-03T04:53:42;102323;;;8.78;87.73
62632;BME280;48703;51.248;-0.546;2023-02-03T04:56:43;102321;;;8.79;87.64
62632;BME280;48703;51.248;-0.546;2023-02-03T04:59:45;102323;;;8.79;87.64
62632;BME280;48703;51.248;-0.546;2023-02-03T05:02:47;102323;;;8.80;87.74
62632;BME280;48703;51.248;-0.546;2023-02-03T05:05:49;102331;;;8.80;87.99
62632;BME280;48703;51.248;-0.546;2023-02-03T05:08:51;102331;;;8.80;88.04
62632;BME280;48703;51.248;-0.546;2023-02-03T05:11:53;102335;;;8.81;88.23
62632;BME280;48703;51.248;-0.546;2023-02-03T05:14:55;102331;;;8.81;88.56
62632;BME280;48703;51.248;-0.546;2023-02-03T05:17:57;102333;;;8.80;88.90
62632;BME280;48703;51.248;-0.546;2023-02-03T05:20:59;102337;;;8.79;89.36
62632;BME280;48703;51.248;-0.546;2023-02-03T05:24:01;102337;;;8.78;89.38
62632;BME280;48703;51.248;-0.546;2023-02-03T05:27:02;102338;;;8.77;89.35
62632;BME280;48703;51.248;-0.546;2023-02-03T05:30:05;102345;;;8.76;89.29
62632;BME280;48703;51.248;-0.546;2023-02-03T05:33:06;102354;;;8.74;89.32
62632;BME280;48703;51.248;-0.546;2023-02-03T05:36:08;102364;;;8.74;89.18
62632;BME280;48703;51.248;-0.546;2023-02-03T05:39:10;102371;;;8.74;89.20
62632;BME280;48703;51.248;-0.546;2023-02-03T05:42:12;102374;;;8.73;89.02
62632;BME280;48703;51.248;-0.546;2023-02-03T05:45:14;102382;;;8.74;88.77
62632;BME280;48703;51.248;-0.546;2023-02-03T05:48:16;102388;;;8.75;88.70
62632;BME280;48703;51.248;-0.546;2023-02-03T05:51:18;102387;;;8.75;88.60
62632;BME280;48703;51.248;-0.546;2023-02-03T05:54:20;102388;;;8.75;88.64
62632;BME280;48703;51.248;-0.546;2023-02-03T05:57:22;102383;;;8.75;88.53
62632;BME280;48703;51.248;-0.546;2023-02-03T06:00:24;102379;;;8.75;88.61
62632;BME280;48703;51.248;-0.546;2023-02-03T06:03:25;102387;;;8.75;88.88
62632;BME280;48703;51.248;-0.546;2023-02-03T06:06:27;102385;;;8.76;88.94
62632;BME280;48703;51.248;-0.546;2023-02-03T06:09:29;102387;;;8.76;89.07
62632;BME280;48703;51.248;-0.546;2023-02-03T06:12:31;102380;;;8.76;89.15
62632;BME280;48703;51.248;-0.546;2023-02-03T06:15:33;102376;;;8.74;89.18
62632;BME280;48703;51.248;-0.546;2023-02-03T06:18:35;102375;;;8.73;89.16
62632;BME280;48703;51.248;-0.546;2023-02-03T06:21:37;102368;;;8.73;88.98
62632;BME280;48703;51.248;-0.546;2023-02-03T06:24:39;102369;;;8.73;89.08
62632;BME280;48703;51.248;-0.546;2023-02-03T06:27:41;102366;;;8.72;89.00
62632;BME280;48703;51.248;-0.546;2023-02-03T06:30:43;102367;;;8.70;89.07
62632;BME280;48703;51.248;-0.546;2023-02-03T06:33:44;102365;;;8.68;89.15
62632;BME280;48703;51.248;-0.546;2023-02-03T06:36:46;102364;;;8.66;89.20
62632;BME280;48703;51.248;-0.546;2023-02-03T06:39:48;102362;;;8.66;88.97
62632;BME280;48703;51.248;-0.546;2023-02-03T06:42:50;102354;;;8.64;88.99
62632;BME280;48703;51.248;-0.546;2023-02-03T06:45:52;102349;;;8.62;88.90
62632;BME280;48703;51.248;-0.546;2023-02-03T06:48:54;102350;;;8.60;88.88
62632;BME280;48703;51.248;-0.546;2023-02-03T06:51:56;102350;;;8.58;88.97
62632;BME280;48703;51.248;-0.546;2023-02-03T06:54:58;102355;;;8.56;89.00
62632;BME280;48703;51.248;-0.546;2023-02-03T06:58:00;102362;;;8.54;89.04
62632;BME280;48703;51.248;-0.546;2023-02-03T07:01:02;102358;;;8.53;89.13
62632;BME280;48703;51.248;-0.546;2023-02-03T07:04:04;102355;;;8.51;89.07
62632;BME280;48703;51.248;-0.546;2023-02-03T07:07:05;102353;;;8.49;89.21
62632;BME280;48703;51.248;-0.546;2023-02-03T07:10:08;102355;;;8.48;89.37
62632;BME280;48703;51.248;-0.546;2023-02-03T07:13:09;102362;;;8.46;89.35
62632;BME280;48703;51.248;-0.546;2023-02-03T07:16:11;102367;;;8.44;89.32
62632;BME280;48703;51.248;-0.546;2023-02-03T07:19:13;102369;;;8.42;89.50
62632;BME280;48703;51.248;-0.546;2023-02-03T07:22:15;102369;;;8.41;89.61
62632;BME280;48703;51.248;-0.546;2023-02-03T07:25:17;102375;;;8.41;89.74
62632;BME280;48703;51.248;-0.546;2023-02-03T07:28:19;102375;;;8.40;89.72
62632;BME280;48703;51.248;-0.546;2023-02-03T07:31:21;102375;;;8.40;89.73
62632;BME280;48703;51.248;-0.546;2023-02-03T07:34:23;102381;;;8.39;89.58
62632;BME280;48703;51.248;-0.546;2023-02-03T07:37:24;102381;;;8.37;89.58
62632;BME280;48703;51.248;-0.546;2023-02-03T07:40:26;102387;;;8.36;89.54
62632;BME280;48703;51.248;-0.546;2023-02-03T07:43:28;102398;;;8.35;89.59
62632;BME280;48703;51.248;-0.546;2023-02-03T07:46:30;102407;;;8.34;89.61
62632;BME280;48703;51.248;-0.546;2023-02-03T07:49:32;102413;;;8.35;90.02
62632;BME280;48703;51.248;-0.546;2023-02-03T07:52:34;102419;;;8.35;89.74
62632;BME280;48703;51.248;-0.546;2023-02-03T07:55:36;102420;;;8.33;89.65
62632;BME280;48703;51.248;-0.546;2023-02-03T07:58:38;102424;;;8.33;89.70
62632;BME280;48703;51.248;-0.546;2023-02-03T08:01:40;102429;;;8.32;89.88
62632;BME280;48703;51.248;-0.546;2023-02-03T08:04:42;102427;;;8.33;90.02
62632;BME280;48703;51.248;-0.546;2023-02-03T08:07:44;102428;;;8.33;89.90
62632;BME280;48703;51.248;-0.546;2023-02-03T08:10:45;102433;;;8.34;89.80
62632;BME280;48703;51.248;-0.546;2023-02-03T08:13:47;102433;;;8.34;89.78
62632;BME280;48703;51.248;-0.546;2023-02-03T08:16:49;102439;;;8.35;89.72
62632;BME280;48703;51.248;-0.546;2023-02-03T08:19:51;102443;;;8.33;89.73
62632;BME280;48703;51.248;-0.546;2023-02-03T08:22:53;102446;;;8.33;89.82
62632;BME280;48703;51.248;-0.546;2023-02-03T08:25:55;102445;;;8.33;90.04
62632;BME280;48703;51.248;-0.546;2023-02-03T08:28:57;102443;;;8.34;89.77
62632;BME280;48703;51.248;-0.546;2023-02-03T08:31:59;102442;;;8.35;89.77
62632;BME280;48703;51.248;-0.546;2023-02-03T08:35:01;102446;;;8.36;89.75
62632;BME280;48703;51.248;-0.546;2023-02-03T08:38:03;102438;;;8.38;89.72
62632;BME280;48703;51.248;-0.546;2023-02-03T08:41:07;102443;;;8.39;89.75
62632;BME280;48703;51.248;-0.546;2023-02-03T08:44:06;102442;;;8.42;89.72
62632;BME280;48703;51.248;-0.546;2023-02-03T08:47:08;102448;;;8.44;89.56
62632;BME280;48703;51.248;-0.546;2023-02-03T08:50:10;102462;;;8.45;89.57
62632;BME280;48703;51.248;-0.546;2023-02-03T08:53:12;102458;;;8.47;89.53
62632;BME280;48703;51.248;-0.546;2023-02-03T08:56:14;102457;;;8.49;89.52
62632;BME280;48703;51.248;-0.546;2023-02-03T08:59:16;102454;;;8.50;89.48
62632;BME280;48703;51.248;-0.546;2023-02-03T09:02:18;102456;;;8.52;89.45
62632;BME280;48703;51.248;-0.546;2023-02-03T09:05:20;102459;;;8.54;89.27
62632;BME280;48703;51.248;-0.546;2023-02-03T09:08:22;102458;;;8.56;89.19
62632;BME280;48703;51.248;-0.546;2023-02-03T09:11:24;102457;;;8.57;89.15
62632;BME280;48703;51.248;-0.546;2023-02-03T09:14:25;102461;;;8.60;89.03
62632;BME280;48703;51.248;-0.546;2023-02-03T09:17:27;102469;;;8.62;89.01
62632;BME280;48703;51.248;-0.546;2023-02-03T09:20:29;102475;;;8.65;88.86
62632;BME280;48703;51.248;-0.546;2023-02-03T09:23:31;102477;;;8.68;88.81
62632;BME280;48703;51.248;-0.546;2023-02-03T09:26:33;102474;;;8.71;88.60
62632;BME280;48703;51.248;-0.546;2023-02-03T09:29:35;102468;;;8.75;88.56
62632;BME280;48703;51.248;-0.546;2023-02-03T09:32:37;102467;;;8.77;88.37
62632;BME280;48703;51.248;-0.546;2023-02-03T09:35:39;102470;;;8.80;88.41
62632;BME280;48703;51.248;-0.546;2023-02-03T09:38:41;102475;;;8.85;88.36
62632;BME280;48703;51.248;-0.546;2023-02-03T09:41:50;102479;;;8.90;88.13
62632;BME280;48703;51.248;-0.546;2023-02-03T09:44:46;102485;;;8.94;87.88
62632;BME280;48703;51.248;-0.546;2023-02-03T09:47:46;102487;;;8.99;87.85
62632;BME280;48703;51.248;-0.546;2023-02-03T09:50:48;102489;;;9.03;87.55
62632;BME280;48703;51.248;-0.546;2023-02-03T09:53:51;102488;;;9.07;87.38
62632;BME280;48703;51.248;-0.546;2023-02-03T09:56:52;102488;;;9.11;87.31
62632;BME280;48703;51.248;-0.546;2023-02-03T09:59:55;102490;;;9.16;87.02
62632;BME280;48703;51.248;-0.546;2023-02-03T10:02:57;102500;;;9.21;87.05
62632;BME280;48703;51.248;-0.546;2023-02-03T10:06:02;102507;;;9.26;86.69
62632;BME280;48703;51.248;-0.546;2023-02-03T10:09:04;102512;;;9.31;86.71
62632;BME280;48703;51.248;-0.546;2023-02-03T10:12:09;102516;;;9.34;86.52
62632;BME280;48703;51.248;-0.546;2023-02-03T10:15:09;102520;;;9.37;86.28
62632;BME280;48703;51.248;-0.546;2023-02-03T10:18:07;102525;;;9.39;86.13
62632;BME280;48703;51.248;-0.546;2023-02-03T10:21:11;102538;;;9.43;85.84
62632;BME280;48703;51.248;-0.546;2023-02-03T10:24:10;102545;;;9.47;85.82
62632;BME280;48703;51.248;-0.546;2023-02-03T10:27:14;102550;;;9.51;85.66
62632;BME280;48703;51.248;-0.546;2023-02-03T10:30:16;102553;;;9.54;85.34
62632;BME280;48703;51.248;-0.546;2023-02-03T10:33:16;102552;;;9.59;85.39
62632;BME280;48703;51.248;-0.546;2023-02-03T10:36:18;102559;;;9.62;85.38
62632;BME280;48703;51.248;-0.546;2023-02-03T10:39:20;102567;;;9.64;85.15
62632;BME280;48703;51.248;-0.546;2023-02-03T10:42:21;102571;;;9.70;85.32
62632;BME280;48703;51.248;-0.546;2023-02-03T10:45:23;102580;;;9.73;84.98
62632;BME280;48703;51.248;-0.546;2023-02-03T10:48:25;102579;;;9.77;85.31
62632;BME280;48703;51.248;-0.546;2023-02-03T10:51:27;102586;;;9.81;85.21
62632;BME280;48703;51.248;-0.546;2023-02-03T10:54:29;102593;;;9.84;85.34
62632;BME280;48703;51.248;-0.546;2023-02-03T10:57:33;102599;;;9.89;84.97
62632;BME280;48703;51.248;-0.546;2023-02-03T11:00:32;102607;;;9.93;85.01
62632;BME280;48703;51.248;-0.546;2023-02-03T11:03:34;102614;;;10.00;84.49
62632;BME280;48703;51.248;-0.546;2023-02-03T11:06:36;102607;;;10.06;83.58
62632;BME280;48703;51.248;-0.546;2023-02-03T11:09:39;102602;;;10.11;84.54
62632;BME280;48703;51.248;-0.546;2023-02-03T11:12:40;102603;;;10.14;83.39
62632;BME280;48703;51.248;-0.546;2023-02-03T11:15:42;102607;;;10.17;83.12
62632;BME280;48703;51.248;-0.546;2023-02-03T11:18:45;102605;;;10.21;83.81
62632;BME280;48703;51.248;-0.546;2023-02-03T11:21:46;102606;;;10.24;83.20
62632;BME280;48703;51.248;-0.546;2023-02-03T11:24:47;102605;;;10.27;83.46
62632;BME280;48703;51.248;-0.546;2023-02-03T11:27:49;102602;;;10.31;83.17
62632;BME280;48703;51.248;-0.546;2023-02-03T11:30:53;102597;;;10.35;83.60
62632;BME280;48703;51.248;-0.546;2023-02-03T11:33:55;102598;;;10.38;83.01
62632;BME280;48703;51.248;-0.546;2023-02-03T11:36:55;102598;;;10.41;83.36
62632;BME280;48703;51.248;-0.546;2023-02-03T11:40:11;102606;;;10.46;83.20
62632;BME280;48703;51.248;-0.546;2023-02-03T11:43:00;102606;;;10.53;83.64
62632;BME280;48703;51.248;-0.546;2023-02-03T11:46:02;102606;;;10.59;83.10
62632;BME280;48703;51.248;-0.546;2023-02-03T11:49:05;102608;;;10.63;82.79
62632;BME280;48703;51.248;-0.546;2023-02-03T11:52:07;102605;;;10.66;82.18
62632;BME280;48703;51.248;-0.546;2023-02-03T11:55:08;102603;;;10.68;81.84
62632;BME280;48703;51.248;-0.546;2023-02-03T11:58:12;102600;;;10.72;81.91
62632;BME280;48703;51.248;-0.546;2023-02-03T12:01:12;102605;;;10.75;81.30
62632;BME280;48703;51.248;-0.546;2023-02-03T12:04:33;102604;;;10.80;81.38
62632;BME280;48703;51.248;-0.546;2023-02-03T12:07:26;102612;;;10.85;81.13
62632;BME280;48703;51.248;-0.546;2023-02-03T12:10:21;102606;;;10.87;80.89
62632;BME280;48703;51.248;-0.546;2023-02-03T12:13:22;102610;;;10.90;81.03
62632;BME280;48703;51.248;-0.546;2023-02-03T12:16:33;102606;;;10.95;80.56
62632;BME280;48703;51.248;-0.546;2023-02-03T12:19:24;102599;;;10.99;80.39
62632;BME280;48703;51.248;-0.546;2023-02-03T12:22:25;102594;;;11.06;80.73
62632;BME280;48703;51.248;-0.546;2023-02-03T12:25:28;102599;;;11.11;80.47
62632;BME280;48703;51.248;-0.546;2023-02-03T12:28:33;102599;;;11.15;80.53
62632;BME280;48703;51.248;-0.546;2023-02-03T12:31:31;102598;;;11.20;80.26
62632;BME280;48703;51.248;-0.546;2023-02-03T12:34:32;102591;;;11.27;80.11
62632;BME280;48703;51.248;-0.546;2023-02-03T12:37:37;102592;;;11.35;79.12
62632;BME280;48703;51.248;-0.546;2023-02-03T12:40:37;102592;;;11.42;79.28
62632;BME280;48703;51.248;-0.546;2023-02-03T12:43:38;102596;;;11.44;78.16
62632;BME280;48703;51.248;-0.546;2023-02-03T12:46:40;102593;;;11.43;77.63
62632;BME280;48703;51.248;-0.546;2023-02-03T12:49:42;102588;;;11.45;78.63
62632;BME280;48703;51.248;-0.546;2023-02-03T12:52:45;102588;;;11.45;77.66
62632;BME280;48703;51.248;-0.546;2023-02-03T12:55:45;102588;;;11.44;77.54
62632;BME280;48703;51.248;-0.546;2023-02-03T12:58:47;102588;;;11.43;77.02
62632;BME280;48703;51.248;-0.546;2023-02-03T13:01:49;102584;;;11.45;77.55
62632;BME280;48703;51.248;-0.546;2023-02-03T13:04:51;102583;;;11.48;78.29
62632;BME280;48703;51.248;-0.546;2023-02-03T13:07:54;102584;;;11.50;77.07
62632;BME280;48703;51.248;-0.546;2023-02-03T13:10:56;102583;;;11.52;77.35
62632;BME280;48703;51.248;-0.546;2023-02-03T13:13:57;102580;;;11.53;77.48
62632;BME280;48703;51.248;-0.546;2023-02-03T13:16:59;102588;;;11.56;77.31
62632;BME280;48703;51.248;-0.546;2023-02-03T13:20:01;102592;;;11.60;77.76
62632;BME280;48703;51.248;-0.546;2023-02-03T13:23:03;102595;;;11.63;76.95
62632;BME280;48703;51.248;-0.546;2023-02-03T13:26:27;102594;;;11.62;77.07
62632;BME280;48703;51.248;-0.546;2023-02-03T13:29:10;102588;;;11.55;76.56
62632;BME280;48703;51.248;-0.546;2023-02-03T13:32:11;102580;;;11.49;77.43
62632;BME280;48703;51.248;-0.546;2023-02-03T13:35:13;102578;;;11.48;77.58
62632;BME280;48703;51.248;-0.546;2023-02-03T13:38:19;102581;;;11.49;77.47
62632;BME280;48703;51.248;-0.546;2023-02-03T13:41:16;102585;;;11.50;76.90
62632;BME280;48703;51.248;-0.546;2023-02-03T13:44:16;102587;;;11.50;76.89
62632;BME280;48703;51.248;-0.546;2023-02-03T13:47:17;102594;;;11.50;76.47
62632;BME280;48703;51.248;-0.546;2023-02-03T13:50:20;102599;;;11.44;76.78
62632;BME280;48703;51.248;-0.546;2023-02-03T13:53:22;102604;;;11.43;77.30
62632;BME280;48703;51.248;-0.546;2023-02-03T13:56:23;102601;;;11.40;77.15
62632;BME280;48703;51.248;-0.546;2023-02-03T13:59:26;102596;;;11.37;77.02
62632;BME280;48703;51.248;-0.546;2023-02-03T14:02:29;102593;;;11.35;77.84
62632;BME280;48703;51.248;-0.546;2023-02-03T14:05:44;102598;;;11.34;77.47
62632;BME280;48703;51.248;-0.546;2023-02-03T14:08:41;102598;;;11.33;77.73
62632;BME280;48703;51.248;-0.546;2023-02-03T14:11:38;102602;;;11.32;77.80
62632;BME280;48703;51.248;-0.546;2023-02-03T14:15:40;102603;;;11.30;77.80
62632;BME280;48703;51.248;-0.546;2023-02-03T14:17:53;102603;;;11.26;77.15
62632;BME280;48703;51.248;-0.546;2023-02-03T14:21:11;102601;;;11.25;77.82
62632;BME280;48703;51.248;-0.546;2023-02-03T14:23:42;102600;;;11.25;77.51
62632;BME280;48703;51.248;-0.546;2023-02-03T14:26:42;102594;;;11.24;77.98
62632;BME280;48703;51.248;-0.546;2023-02-03T14:29:44;102596;;;11.22;77.72
62632;BME280;48703;51.248;-0.546;2023-02-03T14:32:47;102593;;;11.19;78.00
62632;BME280;48703;51.248;-0.546;2023-02-03T14:35:48;102600;;;11.20;78.46
62632;BME280;48703;51.248;-0.546;2023-02-03T14:38:49;102610;;;11.20;78.37
62632;BME280;48703;51.248;-0.546;2023-02-03T14:41:52;102613;;;11.18;78.46
62632;BME280;48703;51.248;-0.546;2023-02-03T14:44:58;102616;;;11.16;78.09
62632;BME280;48703;51.248;-0.546;2023-02-03T14:47:59;102617;;;11.13;78.33
62632;BME280;48703;51.248;-0.546;2023-02-03T14:51:00;102612;;;11.10;78.26
62632;BME280;48703;51.248;-0.546;2023-02-03T14:54:03;102610;;;11.07;78.04
62632;BME280;48703;51.248;-0.546;2023-02-03T14:57:07;102616;;;11.08;78.06
62632;BME280;48703;51.248;-0.546;2023-02-03T15:00:04;102621;;;11.10;78.67
62632;BME280;48703;51.248;-0.546;2023-02-03T15:03:21;102622;;;11.10;77.92
62632;BME280;48703;51.248;-0.546;2023-02-03T15:06:27;102626;;;11.08;77.62
62632;BME280;48703;51.248;-0.546;2023-02-03T15:09:12;102625;;;11.06;77.97
62632;BME280;48703;51.248;-0.546;2023-02-03T15:12:14;102627;;;11.07;78.32
62632;BME280;48703;51.248;-0.546;2023-02-03T15:15:13;102626;;;11.08;78.44
62632;BME280;48703;51.248;-0.546;2023-02-03T15:18:19;102628;;;11.07;78.76
62632;BME280;48703;51.248;-0.546;2023-02-03T15:21:17;102631;;;11.04;78.35
62632;BME280;48703;51.248;-0.546;2023-02-03T15:24:19;102634;;;11.05;78.65
62632;BME280;48703;51.248;-0.546;2023-02-03T15:27:21;102635;;;11.00;78.26
62632;BME280;48703;51.248;-0.546;2023-02-03T15:30:23;102636;;;11.00;78.82
62632;BME280;48703;51.248;-0.546;2023-02-03T15:33:24;102642;;;11.00;78.72
62632;BME280;48703;51.248;-0.546;2023-02-03T15:36:26;102645;;;11.00;78.58
62632;BME280;48703;51.248;-0.546;2023-02-03T15:39:32;102651;;;11.00;78.92
62632;BME280;48703;51.248;-0.546;2023-02-03T15:42:32;102658;;;10.98;78.30
62632;BME280;48703;51.248;-0.546;2023-02-03T15:45:32;102660;;;10.96;78.60
62632;BME280;48703;51.248;-0.546;2023-02-03T15:48:34;102663;;;10.95;78.58
62632;BME280;48703;51.248;-0.546;2023-02-03T15:51:36;102661;;;10.93;78.44
62632;BME280;48703;51.248;-0.546;2023-02-03T15:54:38;102657;;;10.92;78.92
62632;BME280;48703;51.248;-0.546;2023-02-03T15:57:39;102659;;;10.90;79.06
62632;BME280;48703;51.248;-0.546;2023-02-03T16:00:41;102664;;;10.87;79.12
62632;BME280;48703;51.248;-0.546;2023-02-03T16:03:45;102671;;;10.85;79.32
62632;BME280;48703;51.248;-0.546;2023-02-03T16:06:45;102674;;;10.84;79.15
62632;BME280;48703;51.248;-0.546;2023-02-03T16:09:48;102676;;;10.83;79.24
62632;BME280;48703;51.248;-0.546;2023-02-03T16:12:49;102678;;;10.82;79.44
62632;BME280;48703;51.248;-0.546;2023-02-03T16:15:59;102681;;;10.79;79.35
62632;BME280;48703;51.248;-0.546;2023-02-03T16:18:54;102687;;;10.77;79.85
62632;BME280;48703;51.248;-0.546;2023-02-03T16:21:55;102690;;;10.76;79.88
62632;BME280;48703;51.248;-0.546;2023-02-03T16:24:56;102692;;;10.75;79.90